createdAt,value
2018-06-27T00:00:52.890Z,147717.92
2018-06-27T00:03:23.718Z,147711.72
2018-06-27T00:05:54.999Z,147694.34
2018-06-27T00:08:26.109Z,147683.12
2018-06-27T00:10:57.421Z,147705.52
2018-06-27T00:13:28.290Z,147715.44
2018-06-27T00:16:00.447Z,147711.72
2018-06-27T00:18:32.654Z,147717.92
2018-06-27T00:21:03.904Z,147710.47
2018-06-27T00:23:35.024Z,147722.89
2018-06-27T00:26:06.393Z,147712.97
2018-06-27T00:28:37.448Z,147717.92
2018-06-27T00:31:09.655Z,147729.09
2018-06-27T00:33:40.662Z,147740.31
2018-06-27T00:36:11.656Z,147726.61
2018-06-27T00:38:42.811Z,147724.14
2018-06-27T00:41:14.106Z,147720.41
2018-06-27T00:43:45.135Z,147725.37
2018-06-27T00:46:16.060Z,147749.00
2018-06-27T00:48:47.437Z,147758.94
2018-06-27T00:51:18.548Z,147778.80
2018-06-27T00:53:54.341Z,147781.33
2018-06-27T00:56:25.514Z,147791.27
2018-06-27T00:58:56.848Z,147781.33
2018-06-27T01:01:29.473Z,147773.84
2018-06-27T01:04:00.298Z,147801.25
2018-06-27T01:06:31.416Z,147822.36
2018-06-27T01:09:02.827Z,147808.70
2018-06-27T01:11:34.095Z,147823.59
2018-06-27T01:14:06.349Z,147836.06
2018-06-27T01:16:37.629Z,147846.00
2018-06-27T01:19:08.793Z,147839.78
2018-06-27T01:21:39.821Z,147839.78
2018-06-27T01:24:11.029Z,147826.08
2018-06-27T01:26:42.053Z,147842.27
2018-06-27T01:29:14.009Z,147821.11
2018-06-27T01:31:44.848Z,147818.62
2018-06-27T01:34:15.846Z,147785.06
2018-06-27T01:36:47.345Z,147773.84
2018-06-27T01:39:18.729Z,147771.36
2018-06-27T01:41:49.838Z,147786.30
2018-06-27T01:44:20.721Z,147801.25
2018-06-27T01:46:51.770Z,147793.75
2018-06-27T01:49:23.152Z,147797.47
2018-06-27T01:51:54.394Z,147790.03
2018-06-27T01:54:25.704Z,147768.88
2018-06-27T01:56:56.716Z,147753.97
2018-06-27T01:59:27.880Z,147766.39
2018-06-27T02:01:59.094Z,147752.73
2018-06-27T02:04:30.293Z,147751.48
2018-06-27T02:07:02.548Z,147752.73
2018-06-27T02:09:33.748Z,147747.77
2018-06-27T02:12:04.963Z,147757.70
2018-06-27T02:14:35.788Z,147762.66
2018-06-27T02:17:08.014Z,147741.56
2018-06-27T02:19:39.142Z,147749.00
2018-06-27T02:22:10.402Z,147763.91
2018-06-27T02:24:41.761Z,147747.77
2018-06-27T02:27:12.960Z,147746.53
2018-06-27T02:29:46.364Z,147746.53
2018-06-27T02:32:19.677Z,147745.28
2018-06-27T02:34:50.657Z,147741.56
2018-06-27T02:37:21.814Z,147749.00
2018-06-27T02:39:52.995Z,147753.97
2018-06-27T02:42:24.372Z,147788.78
2018-06-27T02:44:55.371Z,147803.73
2018-06-27T02:47:26.284Z,147813.66
2018-06-27T02:49:57.434Z,147813.66
2018-06-27T02:52:28.487Z,147836.06
2018-06-27T02:54:59.604Z,147841.03
2018-06-27T02:57:31.127Z,147841.03
2018-06-27T03:00:02.198Z,147850.97
2018-06-27T03:02:33.334Z,147870.83
2018-06-27T03:05:04.427Z,147899.45
2018-06-27T03:07:35.856Z,147910.62
2018-06-27T03:10:06.826Z,147977.80
2018-06-27T03:12:41.794Z,148037.47
2018-06-27T03:15:12.904Z,148084.80
2018-06-27T03:17:47.214Z,148132.06
2018-06-27T03:20:18.242Z,148214.20
2018-06-27T03:22:49.417Z,148282.67
2018-06-27T03:25:20.438Z,148298.84
2018-06-27T03:27:52.054Z,148293.88
2018-06-27T03:30:23.019Z,148193.02
2018-06-27T03:32:54.157Z,148093.48
2018-06-27T03:35:25.415Z,148038.72
2018-06-27T03:37:56.786Z,148042.45
2018-06-27T03:40:27.944Z,148030.03
2018-06-27T03:42:59.003Z,148035.00
2018-06-27T03:45:30.011Z,148091.00
2018-06-27T03:48:01.235Z,148107.16
2018-06-27T03:50:32.413Z,148184.31
2018-06-27T03:53:03.571Z,148315.06
2018-06-27T03:55:34.812Z,148498.09
2018-06-27T03:58:07.119Z,148570.36
2018-06-27T04:00:38.282Z,148680.03
2018-06-27T04:03:09.301Z,148651.34
2018-06-27T04:05:40.230Z,148703.69
2018-06-27T04:08:11.305Z,148839.59
2018-06-27T04:10:44.601Z,148978.06
2018-06-27T04:13:15.985Z,149097.78
2018-06-27T04:15:47.073Z,149171.47
2018-06-27T04:18:18.493Z,149253.84
2018-06-27T04:20:49.687Z,149303.77
2018-06-27T04:23:20.778Z,149504.87
2018-06-27T04:25:52.608Z,149674.84
2018-06-27T04:28:23.710Z,149709.80
2018-06-27T04:30:54.540Z,149662.27
2018-06-27T04:33:25.712Z,149899.84
2018-06-27T04:35:57.539Z,150120.03
2018-06-27T04:38:28.665Z,150207.66
2018-06-27T04:40:59.923Z,150605.86
2018-06-27T04:43:31.141Z,150547.00
2018-06-27T04:46:02.445Z,150379.16
2018-06-27T04:48:33.620Z,150008.67
2018-06-27T04:51:04.703Z,150191.38
2018-06-27T04:53:35.998Z,150111.28
2018-06-27T04:56:06.780Z,150012.47
2018-06-27T04:58:37.777Z,149934.88
2018-06-27T05:01:08.841Z,149981.14
2018-06-27T05:03:40.182Z,150012.47
2018-06-27T05:06:11.199Z,149941.11
2018-06-27T05:08:42.272Z,150133.78
2018-06-27T05:11:13.237Z,150292.78
2018-06-27T05:13:44.490Z,150143.78
2018-06-27T05:16:16.204Z,150143.78
2018-06-27T05:18:47.586Z,150217.66
2018-06-27T05:21:20.477Z,150036.22
2018-06-27T05:23:51.617Z,149953.61
2018-06-27T05:26:22.705Z,150071.25
2018-06-27T05:28:55.165Z,150379.16
2018-06-27T05:31:25.899Z,150211.41
2018-06-27T05:33:57.738Z,150101.28
2018-06-27T05:36:29.025Z,150136.28
2018-06-27T05:39:00.285Z,150503.17
2018-06-27T05:41:31.170Z,150392.95
2018-06-27T05:44:02.274Z,150821.47
2018-06-27T05:46:33.346Z,150508.17
2018-06-27T05:49:05.649Z,150036.22
2018-06-27T05:51:36.714Z,149823.56
2018-06-27T05:54:07.885Z,149807.28
2018-06-27T05:56:39.319Z,149664.77
2018-06-27T05:59:10.355Z,149549.84
2018-06-27T06:01:41.640Z,149497.39
2018-06-27T06:04:13.150Z,149649.78
2018-06-27T06:06:45.209Z,149654.78
2018-06-27T06:09:17.134Z,149641.05
2018-06-27T06:11:47.876Z,149676.09
2018-06-27T06:14:19.027Z,149667.27
2018-06-27T06:16:50.024Z,149873.63
2018-06-27T06:19:21.255Z,150069.98
2018-06-27T06:21:52.699Z,150222.66
2018-06-27T06:24:24.167Z,150459.28
2018-06-27T06:26:55.487Z,150427.97
2018-06-27T06:29:26.733Z,150386.70
2018-06-27T06:31:57.979Z,150534.50
2018-06-27T06:34:29.328Z,150558.27
2018-06-27T06:37:00.342Z,150617.13
2018-06-27T06:39:31.229Z,150681.09
2018-06-27T06:42:03.626Z,150607.11
2018-06-27T06:44:35.190Z,150166.31
2018-06-27T06:47:06.192Z,149806.03
2018-06-27T06:49:37.547Z,149626.08
2018-06-27T06:52:08.703Z,149481.08
2018-06-27T06:54:39.810Z,149493.66
2018-06-27T06:57:11.141Z,149472.34
2018-06-27T06:59:42.264Z,149621.03
2018-06-27T07:02:13.289Z,149632.31
2018-06-27T07:04:44.404Z,149796.05
2018-06-27T07:07:15.629Z,149611.05
2018-06-27T07:09:46.608Z,149771.08
2018-06-27T07:12:17.635Z,149771.08
2018-06-27T07:14:48.762Z,149998.62
2018-06-27T07:17:19.965Z,150245.22
2018-06-27T07:19:51.175Z,150326.53
2018-06-27T07:22:22.265Z,150436.78
2018-06-27T07:24:53.314Z,150107.53
2018-06-27T07:27:24.407Z,150145.02
2018-06-27T07:29:55.522Z,150192.63
2018-06-27T07:32:27.064Z,150173.81
2018-06-27T07:34:58.221Z,150257.72
2018-06-27T07:37:29.211Z,150310.28
2018-06-27T07:40:00.607Z,150297.78
2018-06-27T07:42:35.840Z,150339.13
2018-06-27T07:45:07.201Z,150349.13
2018-06-27T07:47:38.374Z,150424.22
2018-06-27T07:50:10.073Z,150476.80
2018-06-27T07:52:41.423Z,150547.00
2018-06-27T07:55:13.547Z,150603.36
2018-06-27T07:57:44.752Z,150634.69
2018-06-27T08:00:15.854Z,150349.13
2018-06-27T08:02:46.913Z,150412.97
2018-06-27T08:05:18.221Z,150387.95
2018-06-27T08:07:49.251Z,150387.95
2018-06-27T08:10:20.354Z,150463.05
2018-06-27T08:12:52.314Z,150417.97
2018-06-27T08:15:23.512Z,150426.72
2018-06-27T08:17:55.732Z,150414.22
2018-06-27T08:20:27.096Z,150416.72
2018-06-27T08:22:58.655Z,150223.91
2018-06-27T08:25:30.082Z,150051.20
2018-06-27T08:28:01.181Z,150001.12
2018-06-27T08:30:32.568Z,150023.72
2018-06-27T08:33:03.929Z,150091.23
2018-06-27T08:35:35.366Z,150016.22
2018-06-27T08:38:07.685Z,149696.06
2018-06-27T08:40:38.904Z,149723.58
2018-06-27T08:43:10.045Z,149807.28
2018-06-27T08:45:41.811Z,149707.31
2018-06-27T08:48:13.126Z,149688.58
2018-06-27T08:50:44.245Z,149666.02
2018-06-27T08:53:15.251Z,149591.08
2018-06-27T08:55:46.437Z,149528.59
2018-06-27T08:58:17.365Z,149417.41
2018-06-27T09:00:48.676Z,149423.66
2018-06-27T09:03:19.998Z,149419.91
2018-06-27T09:05:51.068Z,149414.91
2018-06-27T09:08:22.504Z,149351.25
2018-06-27T09:10:53.963Z,149434.88
2018-06-27T09:13:25.195Z,149421.16
2018-06-27T09:15:56.320Z,149407.42
2018-06-27T09:18:27.318Z,149386.17
2018-06-27T09:20:58.485Z,149437.42
2018-06-27T09:23:30.508Z,149502.39
2018-06-27T09:26:01.701Z,149484.87
2018-06-27T09:28:32.879Z,149554.84
2018-06-27T09:31:04.269Z,149466.11
2018-06-27T09:33:35.713Z,149643.55
2018-06-27T09:36:06.802Z,149664.77
2018-06-27T09:38:37.840Z,149763.53
2018-06-27T09:41:09.035Z,149739.81
2018-06-27T09:43:40.323Z,149747.31
2018-06-27T09:46:12.567Z,149787.31
2018-06-27T09:48:43.916Z,149822.31
2018-06-27T09:51:15.448Z,149833.56
2018-06-27T09:53:46.466Z,149768.58
2018-06-27T09:56:18.976Z,149708.55
2018-06-27T09:58:50.887Z,149581.09
2018-06-27T10:01:23.318Z,149466.11
2018-06-27T10:03:54.881Z,149478.58
2018-06-27T10:06:26.434Z,149507.38
2018-06-27T10:08:57.676Z,149421.16
2018-06-27T10:11:28.654Z,149437.42
2018-06-27T10:13:59.921Z,149422.41
2018-06-27T10:16:31.128Z,149472.34
2018-06-27T10:19:02.269Z,149519.86
2018-06-27T10:21:33.439Z,149596.06
2018-06-27T10:24:04.544Z,149677.34
2018-06-27T10:26:36.892Z,149702.31
2018-06-27T10:29:08.057Z,149818.58
2018-06-27T10:31:39.330Z,149819.81
2018-06-27T10:34:12.791Z,149774.81
2018-06-27T10:36:43.976Z,149836.06
2018-06-27T10:39:14.864Z,149749.80
2018-06-27T10:41:46.139Z,149876.12
2018-06-27T10:44:18.365Z,149944.86
2018-06-27T10:46:49.721Z,150071.25
2018-06-27T10:49:20.868Z,150008.67
2018-06-27T10:51:52.599Z,150136.28
2018-06-27T10:54:24.372Z,150242.72
2018-06-27T10:56:55.571Z,150213.91
2018-06-27T10:59:26.609Z,150069.98
2018-06-27T11:01:57.704Z,150018.72
2018-06-27T11:04:28.713Z,150131.28
2018-06-27T11:07:00.040Z,150182.61
2018-06-27T11:09:31.098Z,150185.13
2018-06-27T11:12:03.024Z,150177.62
2018-06-27T11:14:34.089Z,150121.28
2018-06-27T11:17:05.285Z,150180.13
2018-06-27T11:19:36.636Z,150281.47
2018-06-27T11:22:07.694Z,150384.20
2018-06-27T11:24:38.669Z,150421.72
2018-06-27T11:27:09.644Z,150446.78
2018-06-27T11:29:40.487Z,150542.00
2018-06-27T11:32:11.904Z,150701.11
2018-06-27T11:34:44.218Z,150548.25
2018-06-27T11:37:15.431Z,150622.17
2018-06-27T11:39:46.437Z,150638.44
2018-06-27T11:42:17.477Z,150691.09
2018-06-27T11:44:48.682Z,150643.44
2018-06-27T11:47:20.262Z,150712.38
2018-06-27T11:49:51.391Z,150756.23
2018-06-27T11:52:23.175Z,150587.09
2018-06-27T11:54:58.907Z,150587.09
2018-06-27T11:57:30.152Z,150569.53
2018-06-27T12:00:01.513Z,150538.25
2018-06-27T12:02:32.661Z,150531.98
2018-06-27T12:05:03.895Z,150485.61
2018-06-27T12:07:35.232Z,150434.28
2018-06-27T12:10:06.892Z,150387.95
2018-06-27T12:12:38.172Z,150320.28
2018-06-27T12:15:10.705Z,150307.78
2018-06-27T12:17:42.003Z,150302.78
2018-06-27T12:20:12.867Z,150290.27
2018-06-27T12:22:43.969Z,150262.72
2018-06-27T12:27:51.560Z,150250.22
2018-06-27T12:30:23.918Z,150301.53
2018-06-27T12:32:55.065Z,150349.13
2018-06-27T12:35:26.044Z,150414.22
2018-06-27T12:37:56.981Z,150434.28
2018-06-27T12:40:27.815Z,150461.78
2018-06-27T12:42:58.816Z,150479.34
2018-06-27T12:45:29.922Z,150401.70
2018-06-27T12:48:00.828Z,150355.39
2018-06-27T12:50:31.933Z,150327.78
2018-06-27T12:53:03.016Z,150138.78
2018-06-27T12:55:35.178Z,150126.28
2018-06-27T12:58:07.043Z,150056.25
2018-06-27T13:00:38.063Z,150019.97
2018-06-27T13:03:09.523Z,149943.61
2018-06-27T13:05:40.926Z,149961.16
2018-06-27T13:08:12.172Z,149931.13
2018-06-27T13:10:43.309Z,149951.11
2018-06-27T13:13:14.430Z,149926.13
2018-06-27T13:15:45.505Z,149906.09
2018-06-27T13:18:16.569Z,149948.61
2018-06-27T13:20:47.492Z,149921.12
2018-06-27T13:23:18.599Z,149906.09
2018-06-27T13:25:49.808Z,149899.84
2018-06-27T13:28:21.333Z,149894.84
2018-06-27T13:30:52.253Z,149869.88
2018-06-27T13:33:23.368Z,149883.61
2018-06-27T13:35:54.731Z,149833.56
2018-06-27T13:38:26.018Z,149792.31
2018-06-27T13:40:57.489Z,149712.30
2018-06-27T13:43:28.706Z,149714.80
2018-06-27T13:45:59.681Z,149718.53
2018-06-27T13:48:30.886Z,149724.83
2018-06-27T13:51:02.048Z,149714.80
2018-06-27T13:53:33.431Z,149736.06
2018-06-27T13:56:04.588Z,149694.81
2018-06-27T13:58:35.726Z,149813.53
2018-06-27T14:01:06.610Z,149837.30
2018-06-27T14:03:38.266Z,149794.80
2018-06-27T14:06:09.519Z,149751.05
2018-06-27T14:08:40.393Z,149717.30
2018-06-27T14:11:11.704Z,149723.58
2018-06-27T14:13:42.911Z,149684.83
2018-06-27T14:16:14.019Z,149674.84
2018-06-27T14:18:45.534Z,149682.34
2018-06-27T14:21:16.612Z,149701.06
2018-06-27T14:23:47.511Z,149724.83
2018-06-27T14:26:18.634Z,149721.08
2018-06-27T14:28:49.829Z,149737.31
2018-06-27T14:31:20.999Z,149737.31
2018-06-27T14:33:52.383Z,149714.80
2018-06-27T14:36:23.497Z,149676.09
2018-06-27T14:38:54.726Z,149707.31
2018-06-27T14:41:25.989Z,149723.58
2018-06-27T14:43:57.458Z,149713.55
2018-06-27T14:46:28.563Z,149708.55
2018-06-27T14:49:00.038Z,149698.56
2018-06-27T14:51:31.433Z,149674.84
2018-06-27T14:54:02.716Z,149703.56
2018-06-27T14:56:34.716Z,149691.08
2018-06-27T14:59:06.041Z,149658.53
2018-06-27T15:01:37.037Z,149698.56
2018-06-27T15:04:07.892Z,149708.55
2018-06-27T15:06:38.982Z,149724.83
2018-06-27T15:09:11.857Z,149691.08
2018-06-27T15:11:43.204Z,149711.05
2018-06-27T15:14:14.378Z,149721.08
2018-06-27T15:16:46.450Z,149743.56
2018-06-27T15:19:18.297Z,149728.58
2018-06-27T15:21:49.684Z,149744.81
2018-06-27T15:24:21.371Z,149794.80
2018-06-27T15:26:52.532Z,149841.05
2018-06-27T15:29:24.150Z,149811.03
2018-06-27T15:31:55.400Z,149837.30
2018-06-27T15:34:26.552Z,149779.81
2018-06-27T15:36:58.745Z,149751.05
2018-06-27T15:39:30.548Z,149763.53
2018-06-27T15:42:01.531Z,149776.06
2018-06-27T15:44:33.315Z,149736.06
2018-06-27T15:47:04.478Z,149704.81
2018-06-27T15:49:35.685Z,149694.81
2018-06-27T15:52:06.691Z,149681.09
2018-06-27T15:54:38.540Z,149608.55
2018-06-27T15:57:09.794Z,149554.84
2018-06-27T15:59:45.268Z,149546.11
2018-06-27T16:02:16.365Z,149524.84
2018-06-27T16:04:47.483Z,149497.39
2018-06-27T16:07:19.139Z,149497.39
2018-06-27T16:09:51.443Z,149466.11
2018-06-27T16:12:22.980Z,149481.08
2018-06-27T16:14:54.366Z,149493.66
2018-06-27T16:17:25.839Z,149509.88
2018-06-27T16:19:56.743Z,149526.09
2018-06-27T16:22:28.093Z,149508.63
2018-06-27T16:24:59.407Z,149507.38
2018-06-27T16:27:34.364Z,149506.13
2018-06-27T16:30:07.720Z,149466.11
2018-06-27T16:32:38.892Z,149477.34
2018-06-27T16:35:10.524Z,149478.58
2018-06-27T16:37:42.175Z,149479.83
2018-06-27T16:40:13.519Z,149476.09
2018-06-27T16:42:45.449Z,149457.37
2018-06-27T16:45:17.209Z,149417.41
2018-06-27T16:47:48.338Z,149422.41
2018-06-27T16:50:19.916Z,149383.69
2018-06-27T16:52:51.191Z,149403.69
2018-06-27T16:55:22.987Z,149378.69
2018-06-27T16:57:54.148Z,149326.27
2018-06-27T17:00:25.337Z,149339.98
2018-06-27T17:02:56.566Z,149343.77
2018-06-27T17:05:27.949Z,149341.28
2018-06-27T17:07:59.068Z,149359.98
2018-06-27T17:10:30.913Z,149369.97
2018-06-27T17:13:02.276Z,149368.72
2018-06-27T17:15:34.060Z,149373.70
2018-06-27T17:18:05.457Z,149378.69
2018-06-27T17:20:36.987Z,149356.25
2018-06-27T17:23:08.404Z,149359.98
2018-06-27T17:25:40.066Z,149346.27
2018-06-27T17:28:11.372Z,149337.48
2018-06-27T17:30:43.165Z,149283.77
2018-06-27T17:33:14.538Z,149240.08
2018-06-27T17:35:45.516Z,149240.08
2018-06-27T17:38:16.951Z,149210.16
2018-06-27T17:40:48.245Z,149168.97
2018-06-27T17:43:19.654Z,149171.47
2018-06-27T17:45:51.193Z,149173.95
2018-06-27T17:48:23.018Z,149141.50
2018-06-27T17:50:54.234Z,149150.22
2018-06-27T17:53:25.411Z,149130.28
2018-06-27T17:55:57.027Z,149084.06
2018-06-27T17:58:28.670Z,149082.81
2018-06-27T18:00:59.837Z,149094.03
2018-06-27T18:03:31.337Z,149095.28
2018-06-27T18:06:02.921Z,149120.31
2018-06-27T18:08:34.159Z,149116.53
2018-06-27T18:11:05.356Z,149119.06
2018-06-27T18:13:36.786Z,149090.30
2018-06-27T18:16:09.200Z,149079.09
2018-06-27T18:18:40.378Z,149106.56
2018-06-27T18:21:12.046Z,149104.06
2018-06-27T18:23:43.991Z,149096.53
2018-06-27T18:26:15.988Z,148996.75
2018-06-27T18:28:47.166Z,149096.53
2018-06-27T18:31:18.571Z,149109.05
2018-06-27T18:33:49.677Z,149086.56
2018-06-27T18:36:21.047Z,149084.06
2018-06-27T18:38:52.167Z,149085.31
2018-06-27T18:41:23.479Z,149102.77
2018-06-27T18:43:54.835Z,149076.59
2018-06-27T18:46:26.519Z,149072.84
2018-06-27T18:48:57.744Z,149087.81
2018-06-27T18:51:29.200Z,149054.11
2018-06-27T18:54:00.622Z,149034.17
2018-06-27T18:56:32.036Z,149054.11
2018-06-27T18:59:03.211Z,149062.88
2018-06-27T19:01:34.869Z,149054.11
2018-06-27T19:04:06.311Z,149029.19
2018-06-27T19:06:37.520Z,149014.23
2018-06-27T19:09:11.541Z,149004.22
2018-06-27T19:11:43.716Z,148981.80
2018-06-27T19:14:15.058Z,148981.80
2018-06-27T19:16:46.303Z,148968.09
2018-06-27T19:19:17.479Z,148926.94
2018-06-27T19:21:48.756Z,148920.66
2018-06-27T19:24:20.052Z,148920.66
2018-06-27T19:26:51.674Z,148943.13
2018-06-27T19:29:23.054Z,148986.78
2018-06-27T19:31:54.591Z,149007.95
2018-06-27T19:34:25.717Z,149004.22
2018-06-27T19:36:57.311Z,149010.50
2018-06-27T19:39:37.456Z,148955.59
2018-06-27T19:42:01.578Z,148931.91
2018-06-27T19:44:32.938Z,148931.91
2018-06-27T19:47:04.303Z,148895.69
2018-06-27T19:49:35.606Z,148860.77
2018-06-27T19:52:07.218Z,148864.50
2018-06-27T19:54:38.739Z,148848.31
2018-06-27T19:57:10.469Z,148843.34
2018-06-27T19:59:42.030Z,148852.06
2018-06-27T20:02:13.175Z,148873.28
2018-06-27T20:04:44.304Z,148874.52
2018-06-27T20:07:15.759Z,148875.77
2018-06-27T20:09:47.233Z,148889.47
2018-06-27T20:12:18.556Z,148900.67
2018-06-27T20:14:50.368Z,148941.88
2018-06-27T20:17:21.963Z,148981.80
2018-06-27T20:19:53.928Z,149011.75
2018-06-27T20:22:25.561Z,149041.66
2018-06-27T20:24:56.709Z,149046.64
2018-06-27T20:27:28.114Z,149069.12
2018-06-27T20:29:59.248Z,149091.55
2018-06-27T20:32:30.576Z,149097.78
2018-06-27T20:35:01.783Z,149069.12
2018-06-27T20:37:34.057Z,149021.72
2018-06-27T20:40:05.580Z,148984.28
2018-06-27T20:42:37.072Z,148939.39
2018-06-27T20:45:09.022Z,148939.39
2018-06-27T20:47:40.109Z,148903.17
2018-06-27T20:50:12.036Z,148879.50
2018-06-27T20:52:43.768Z,148869.53
2018-06-27T20:55:14.983Z,148889.47
2018-06-27T20:57:46.780Z,148921.95
2018-06-27T21:00:19.957Z,148915.67
2018-06-27T21:02:51.392Z,148916.92
2018-06-27T21:05:22.675Z,148923.19
2018-06-27T21:08:16.700Z,148948.11
2018-06-27T21:10:47.677Z,148958.08
2018-06-27T21:13:19.120Z,148964.36
2018-06-27T21:15:50.240Z,148946.86
2018-06-27T21:18:21.598Z,148943.13
2018-06-27T21:20:52.919Z,148959.31
2018-06-27T21:23:24.234Z,148986.78
2018-06-27T21:25:56.277Z,148974.31
2018-06-27T21:28:27.524Z,148975.56
2018-06-27T21:30:58.728Z,148926.94
2018-06-27T21:33:29.807Z,148935.66
2018-06-27T21:36:01.933Z,148928.19
2018-06-27T21:38:33.283Z,148924.44
2018-06-27T21:41:04.688Z,148931.91
2018-06-27T21:43:36.765Z,148929.42
2018-06-27T21:46:08.277Z,148925.69
2018-06-27T21:48:40.450Z,148939.39
2018-06-27T21:51:11.586Z,148960.56
2018-06-27T21:53:42.877Z,148954.34
2018-06-27T21:56:14.181Z,148971.83
2018-06-27T21:58:46.309Z,148971.83
2018-06-27T22:01:18.538Z,148976.81
2018-06-27T22:03:49.919Z,148935.66
2018-06-27T22:06:21.025Z,148929.42
2018-06-27T22:08:52.881Z,148924.44
2018-06-27T22:11:25.114Z,148919.41
2018-06-27T22:13:56.342Z,148882.00
2018-06-27T22:16:27.714Z,148854.55
2018-06-27T22:18:58.837Z,148839.59
2018-06-27T22:21:30.042Z,148804.69
2018-06-27T22:24:01.346Z,148776.05
2018-06-27T22:26:32.567Z,148774.80
2018-06-27T22:29:03.727Z,148778.53
2018-06-27T22:31:35.009Z,148756.06
2018-06-27T22:34:06.167Z,148757.31
2018-06-27T22:36:37.222Z,148759.81
2018-06-27T22:39:11.277Z,148757.31
2018-06-27T22:41:43.218Z,148732.41
2018-06-27T22:44:14.834Z,148689.98
2018-06-27T22:46:45.988Z,148699.95
2018-06-27T22:49:17.918Z,148692.48
2018-06-27T22:51:49.036Z,148696.22
2018-06-27T22:54:21.467Z,148635.17
2018-06-27T22:56:53.639Z,148652.59
2018-06-27T22:59:24.786Z,148640.16
2018-06-27T23:01:56.088Z,148602.77
2018-06-27T23:04:27.287Z,148597.78
2018-06-27T23:06:58.755Z,148595.30
2018-06-27T23:09:29.868Z,148586.58
2018-06-27T23:12:02.790Z,148555.42
2018-06-27T23:14:33.945Z,148535.47
2018-06-27T23:17:06.147Z,148542.98
2018-06-27T23:19:37.263Z,148530.50
2018-06-27T23:22:11.940Z,148525.52
2018-06-27T23:24:44.409Z,148530.50
2018-06-27T23:27:15.612Z,148540.50
2018-06-27T23:29:46.687Z,148550.45
2018-06-27T23:32:17.922Z,148550.45
2018-06-27T23:34:49.708Z,148519.30
2018-06-27T23:37:20.653Z,148475.66
2018-06-27T23:39:51.832Z,148409.67
2018-06-27T23:42:22.832Z,148404.69
2018-06-27T23:44:54.105Z,148398.47
2018-06-27T23:47:25.096Z,148388.48
2018-06-27T23:49:56.100Z,148402.22
2018-06-27T23:52:27.435Z,148384.75
2018-06-27T23:54:58.767Z,148348.69
2018-06-27T23:57:30.611Z,148341.17
